Time;durP1;ratioP1;P1;durP2;ratioP2;P2;SDS_P1;SDS_P2;PMS_P1;PMS_P2;Temp;Humidity;BMP_temperature;BMP_pressure;BME280_temperature;BME280_humidity;BME280_pressure;Samples;Min_cycle;Max_cycle;Signal;HPM_P1;HPM_P2
2021/05/05 05:07:58;;;;;;;5.35;2.05;;;;;;;26.24;22.97;100983.93;1846711;76;28126;-62
2021/05/05 05:10:31;;;;;;;5.72;2.60;;;;;;;26.49;22.61;100986.04;1809771;77;21246;-71
2021/05/05 05:13:06;;;;;;;2.98;1.75;;;;;;;26.69;22.23;100988.84;1764195;79;21216;-58
2021/05/05 05:15:40;;;;;;;5.17;1.80;;;;;;;27.02;21.51;100992.50;1775543;79;21315;-60
2021/05/05 05:18:13;;;;;;;3.62;2.17;;;;;;;27.27;21.01;100988.37;1740872;80;21274;-64
2021/05/05 05:20:46;;;;;;;3.10;1.77;;;;;;;27.46;21.41;100990.00;1765031;79;21188;-58
2021/05/05 05:23:19;;;;;;;3.52;2.00;;;;;;;27.87;20.47;100983.23;1762442;79;21874;-61
2021/05/05 05:25:52;;;;;;;2.80;1.75;;;;;;;28.26;20.22;100985.83;1752151;80;22486;-64
2021/05/05 05:28:26;;;;;;;3.10;1.52;;;;;;;28.72;19.46;100981.48;1758614;79;21295;-61
2021/05/05 05:30:59;;;;;;;4.60;1.85;;;;;;;29.03;19.10;100985.10;1760457;80;21299;-61
2021/05/05 05:33:32;;;;;;;1.65;1.12;;;;;;;29.34;17.81;100987.36;1751649;79;21295;-65
2021/05/05 05:36:05;;;;;;;2.40;1.60;;;;;;;29.75;17.20;100987.03;1755451;80;21339;-72
2021/05/05 05:38:39;;;;;;;4.17;3.00;;;;;;;30.19;16.47;100983.98;1752095;80;21260;-62
2021/05/05 05:41:12;;;;;;;;;;;;;;;30.50;16.59;100985.27;1759196;80;21177;-62
2021/05/05 05:43:45;;;;;;;3.35;1.90;;;;;;;30.80;16.49;100979.45;1758266;80;20246;-63
2021/05/05 05:46:17;;;;;;;;;;;;;;;30.99;16.30;100979.45;1748222;80;21309;-69
2021/05/05 05:48:50;;;;;;;2.30;1.30;;;;;;;31.10;15.51;100984.72;1741576;81;20289;-62
2021/05/05 05:51:23;;;;;;;1.95;1.40;;;;;;;31.12;15.54;100985.84;1715060;81;21250;-67
2021/05/05 05:53:56;;;;;;;2.33;1.50;;;;;;;31.33;15.11;100987.13;1739393;81;21357;-64
2021/05/05 05:56:28;;;;;;;;;;;;;;;31.54;14.86;100984.66;1737497;81;21301;-62
2021/05/05 05:59:01;;;;;;;1.75;1.25;;;;;;;31.58;14.77;100987.13;1733595;81;20217;-66
2021/05/05 06:01:35;;;;;;;2.12;1.17;;;;;;;31.73;14.49;100979.98;1734996;81;21255;-64
2021/05/05 06:04:08;;;;;;;4.12;1.20;;;;;;;32.00;13.82;100981.85;1733125;81;21315;-64
2021/05/05 06:06:42;;;;;;;26.15;2.75;;;;;;;32.28;13.60;100984.21;1739913;81;21322;-67
2021/05/05 06:09:16;;;;;;;2.00;1.02;;;;;;;32.45;13.62;100991.11;1734091;81;21389;-68
2021/05/05 06:11:50;;;;;;;2.35;0.90;;;;;;;32.69;13.37;100991.53;1735117;81;21300;-71
2021/05/05 06:14:22;;;;;;;;;;;;;;;32.72;13.12;100995.05;1735848;81;21216;-66
2021/05/05 06:16:55;;;;;;;1.77;1.10;;;;;;;32.77;13.42;100987.50;1735958;81;20692;-67
2021/05/05 06:19:28;;;;;;;5.47;1.37;;;;;;;32.78;13.42;100986.41;1731644;81;21263;-69
2021/05/05 06:22:00;;;;;;;;;;;;;;;32.89;12.91;100994.31;1732995;81;21310;-67
2021/05/05 06:24:34;;;;;;;5.67;1.67;;;;;;;33.11;12.66;100990.91;1730461;81;20294;-67
2021/05/05 06:27:07;;;;;;;1.72;1.32;;;;;;;33.29;12.49;100988.78;1734013;81;21866;-67
2021/05/05 06:29:41;;;;;;;2.20;1.20;;;;;;;33.34;12.26;100987.45;1733242;81;21302;-64
2021/05/05 06:32:15;;;;;;;2.15;1.10;;;;;;;33.07;12.62;100977.61;1732360;81;21313;-63
2021/05/05 06:34:49;;;;;;;1.70;1.30;;;;;;;32.86;12.88;100973.70;1733058;81;21339;-63
2021/05/05 06:37:23;;;;;;;4.33;1.32;;;;;;;32.96;13.13;100985.95;1734346;81;21326;-71
2021/05/05 06:39:57;;;;;;;3.10;2.80;;;;;;;33.31;13.10;100989.33;1729447;81;21149;-69
2021/05/05 06:42:30;;;;;;;8.25;6.50;;;;;;;33.62;13.06;100987.78;1726761;81;21270;-63
2021/05/05 06:45:05;;;;;;;2.80;2.27;;;;;;;33.27;12.67;100982.25;1738074;81;21350;-67
2021/05/05 06:47:39;;;;;;;1.67;1.30;;;;;;;32.40;12.82;100987.01;1752342;80;21359;-63
2021/05/05 06:50:14;;;;;;;2.20;1.00;;;;;;;31.71;13.13;100987.55;1752096;81;21283;-66
2021/05/05 06:52:46;;;;;;;1.82;0.95;;;;;;;31.82;13.47;100985.20;1753996;80;21341;-68
2021/05/05 06:55:19;;;;;;;2.62;1.00;;;;;;;32.16;13.08;100976.28;1734123;81;21339;-67
2021/05/05 06:57:54;;;;;;;1.25;1.00;;;;;;;32.59;12.89;100974.67;1710696;81;21839;-71
2021/05/05 07:00:28;;;;;;;2.65;0.95;;;;;;;33.02;12.45;100980.30;1735471;81;21323;-67
2021/05/05 07:03:02;;;;;;;2.22;1.15;;;;;;;33.22;12.18;100981.70;1739745;81;21407;-65
2021/05/05 07:05:36;;;;;;;0.90;0.80;;;;;;;33.37;12.03;100985.52;1744689;81;21278;-64
2021/05/05 07:08:10;;;;;;;1.57;0.70;;;;;;;33.61;11.90;100983.43;1737999;81;21346;-64
2021/05/05 07:10:43;;;;;;;0.95;0.90;;;;;;;33.99;11.70;100976.63;1740471;81;21759;-68
2021/05/05 07:13:16;;;;;;;0.90;0.60;;;;;;;34.34;11.20;100982.60;1731431;81;21337;-66
2021/05/05 07:15:49;;;;;;;1.75;0.90;;;;;;;34.64;11.09;100985.25;1757917;80;21310;-70
2021/05/05 07:18:24;;;;;;;2.67;1.10;;;;;;;35.04;11.01;100979.66;1721275;82;21364;-69
2021/05/05 07:20:58;;;;;;;1.77;0.88;;;;;;;35.57;10.70;100973.91;1763999;80;22155;-65
2021/05/05 07:23:31;;;;;;;1.42;0.98;;;;;;;36.10;10.24;100974.02;1738302;81;21366;-71
2021/05/05 07:26:04;;;;;;;3.30;1.32;;;;;;;36.12;9.94;100979.98;1721530;82;21304;-67
2021/05/05 07:28:38;;;;;;;1.52;0.88;;;;;;;36.08;10.04;100974.31;1730531;81;21360;-71
2021/05/05 07:31:11;;;;;;;1.20;1.10;;;;;;;35.93;10.11;100985.32;1729071;81;21331;-64
2021/05/05 07:33:45;;;;;;;3.80;1.05;;;;;;;35.81;10.43;100988.42;1749025;80;21743;-64
2021/05/05 07:36:26;;;;;;;1.05;0.95;;;;;;;35.78;10.28;100969.09;1738159;80;21244;-68
2021/05/05 07:44:44;;;;;;;2.90;1.27;;;;;;;35.37;10.56;100967.77;1731671;81;21792;-69
2021/05/05 07:46:50;;;;;;;1.57;1.05;;;;;;;35.16;10.59;100963.81;1727144;81;21313;-71
2021/05/05 07:49:22;;;;;;;1.95;0.90;;;;;;;34.87;10.68;100966.13;1743746;81;22444;-73
2021/05/05 07:51:54;;;;;;;2.15;0.90;;;;;;;34.68;10.68;100966.48;1738756;81;21330;-67
2021/05/05 07:54:25;;;;;;;1.47;0.85;;;;;;;34.33;10.84;100970.09;1736065;81;21366;-69
2021/05/05 07:56:57;;;;;;;1.62;1.02;;;;;;;33.95;11.05;100972.84;1741708;81;21801;-60
2021/05/05 07:59:29;;;;;;;2.30;1.10;;;;;;;33.79;11.07;100965.80;1740331;81;21779;-70
2021/05/05 08:02:02;;;;;;;1.50;0.95;;;;;;;33.64;10.99;100961.17;1727618;81;21267;-68
2021/05/05 08:04:36;;;;;;;1.72;0.98;;;;;;;33.44;11.16;100960.33;1728008;81;21228;-69
2021/05/05 08:07:09;;;;;;;1.50;1.02;;;;;;;33.01;11.71;100964.24;1739973;81;21250;-67
2021/05/05 08:09:42;;;;;;;2.85;2.15;;;;;;;32.71;11.96;100961.43;1741362;81;21339;-68
2021/05/05 08:12:15;;;;;;;1.72;1.20;;;;;;;32.42;11.92;100959.09;1737236;81;21324;-69
2021/05/05 08:14:51;;;;;;;0.90;0.80;;;;;;;32.08;12.26;100951.55;1727451;81;21713;-65
2021/05/05 08:17:24;;;;;;;1.27;0.98;;;;;;;32.08;12.54;100959.14;1736652;81;21416;-63
2021/05/05 08:19:59;;;;;;;4.75;1.32;;;;;;;32.28;12.61;100955.23;1742381;81;22561;-61
2021/05/05 08:22:33;;;;;;;4.03;1.90;;;;;;;32.37;12.08;100954.18;1732789;81;21876;-62
2021/05/05 08:25:07;;;;;;;1.80;0.98;;;;;;;32.29;12.35;100954.70;1727623;81;21332;-62
2021/05/05 08:27:40;;;;;;;3.52;1.10;;;;;;;32.19;12.40;100945.97;1750661;80;21376;-67
2021/05/05 08:30:17;;;;;;;2.30;1.05;;;;;;;32.19;12.41;100952.73;1743064;81;21275;-74
2021/05/05 08:32:50;;;;;;;1.32;0.90;;;;;;;32.08;12.52;100953.73;1736821;81;21267;-72
2021/05/05 08:35:23;;;;;;;1.98;1.30;;;;;;;32.13;12.62;100949.70;1752059;80;21865;-62
2021/05/05 08:37:56;;;;;;;;;;;;;;;32.06;12.42;100942.88;1752893;80;21322;-69
2021/05/05 08:40:30;;;;;;;1.40;1.07;;;;;;;31.75;12.70;100935.86;1740379;80;20729;-71
2021/05/05 08:43:05;;;;;;;2.52;1.65;;;;;;;31.57;12.80;100948.45;1750484;80;21255;-63
2021/05/05 08:45:38;;;;;;;2.75;1.07;;;;;;;31.52;13.20;100936.75;1741103;81;21904;-70
2021/05/05 08:48:12;;;;;;;1.17;1.07;;;;;;;31.58;13.16;100943.30;1705482;82;21885;-68
2021/05/05 08:50:45;;;;;;;2.40;1.25;;;;;;;31.61;12.81;100947.38;1731603;81;21289;-68
2021/05/05 08:53:18;;;;;;;2.20;1.20;;;;;;;31.62;13.15;100943.61;1737918;81;21370;-62
2021/05/05 08:55:50;;;;;;;;;;;;;;;31.15;13.14;100944.20;1738904;81;21243;-68
2021/05/05 08:58:25;;;;;;;1.72;0.95;;;;;;;30.45;13.25;100937.94;1731588;81;20297;-64
2021/05/05 09:00:58;;;;;;;1.25;0.93;;;;;;;29.75;13.83;100942.50;1736171;81;21766;-62
2021/05/05 09:03:43;;;;;;;1.35;0.90;;;;;;;29.40;14.24;100939.73;1738783;81;21323;-67
2021/05/05 09:06:10;;;;;;;2.12;0.90;;;;;;;29.41;14.22;100944.05;1739004;81;21353;-69
2021/05/05 09:08:49;;;;;;;1.27;1.00;;;;;;;29.30;14.49;100945.20;1736810;81;21779;-64
2021/05/05 09:11:22;;;;;;;1.77;1.10;;;;;;;29.25;14.21;100938.40;1735719;81;21838;-69
2021/05/05 09:13:58;;;;;;;3.45;0.93;;;;;;;28.64;14.58;100934.17;1734622;81;21415;-69
2021/05/05 09:16:32;;;;;;;1.80;1.02;;;;;;;27.60;15.01;100924.19;1751775;80;21279;-70
2021/05/05 09:19:12;;;;;;;4.70;1.00;;;;;;;26.64;15.96;100938.99;1734232;81;21346;-73
2021/05/05 09:21:51;;;;;;;1.20;0.98;;;;;;;26.20;16.71;100947.84;1720814;81;21770;-71
2021/05/05 09:24:33;;;;;;;3.08;1.12;;;;;;;26.22;16.75;100937.19;1761794;80;21295;-69
2021/05/05 09:27:07;;;;;;;2.05;1.10;;;;;;;26.20;16.92;100934.42;1756398;80;21294;-69
2021/05/05 09:29:49;;;;;;;1.25;0.93;;;;;;;26.26;16.63;100927.64;1729129;82;21335;-71
2021/05/05 09:32:23;;;;;;;1.15;0.80;;;;;;;26.25;16.96;100927.33;1748873;81;21257;-64
2021/05/05 09:35:05;;;;;;;1.22;1.00;;;;;;;26.14;16.74;100924.55;1740807;81;21294;-66
2021/05/05 09:37:38;;;;;;;5.17;1.10;;;;;;;25.81;16.67;100916.27;1736322;81;21188;-66
2021/05/05 09:40:12;;;;;;;1.70;0.90;;;;;;;25.43;17.49;100931.05;1739350;81;21251;-63
2021/05/05 09:42:47;;;;;;;3.65;1.25;;;;;;;25.12;17.90;100934.25;1740049;81;21980;-65
2021/05/05 09:45:20;;;;;;;0.70;0.62;;;;;;;24.83;18.31;100934.79;1740245;81;21390;-63
2021/05/05 09:47:57;;;;;;;3.87;1.10;;;;;;;24.64;18.72;100931.13;1741812;81;21306;-62
2021/05/05 09:50:41;;;;;;;2.75;1.10;;;;;;;24.49;18.99;100927.36;1733368;81;21249;-63
2021/05/05 09:53:35;;;;;;;2.62;1.17;;;;;;;24.37;18.78;100927.70;1734062;81;21280;-62
2021/05/05 09:56:12;;;;;;;4.55;1.20;;;;;;;24.08;19.10;100923.62;1735891;81;21236;-66
2021/05/05 09:58:45;;;;;;;1.90;1.15;;;;;;;23.77;19.00;100918.06;1735429;81;21270;-65
2021/05/05 10:01:21;;;;;;;3.00;1.07;;;;;;;23.39;19.41;100914.33;1735492;81;21188;-65
2021/05/05 10:03:56;;;;;;;1.95;1.27;;;;;;;23.08;19.72;100917.52;1735201;81;21219;-72
2021/05/05 10:06:37;;;;;;;3.10;1.35;;;;;;;22.83;20.84;100919.09;1744584;81;21369;-66
2021/05/05 10:09:13;;;;;;;4.62;1.10;;;;;;;22.79;20.80;100909.30;1735177;81;21708;-63
2021/05/05 10:11:47;;;;;;;1.50;1.10;;;;;;;22.73;20.87;100911.95;1722691;81;21321;-63
2021/05/05 10:14:22;;;;;;;1.70;1.07;;;;;;;22.57;20.54;100902.93;1730230;81;22257;-68
2021/05/05 10:16:56;;;;;;;2.00;1.17;;;;;;;22.46;20.38;100899.47;1740936;81;21334;-64
2021/05/05 10:19:34;;;;;;;2.65;1.27;;;;;;;22.41;20.35;100905.40;1732441;81;21339;-64
2021/05/05 10:22:08;;;;;;;2.12;1.10;;;;;;;22.26;19.92;100897.22;1731418;81;21345;-64
2021/05/05 10:24:46;;;;;;;3.00;1.32;;;;;;;22.04;20.87;100899.13;1736793;81;22138;-64
2021/05/05 10:27:20;;;;;;;18.62;1.80;;;;;;;21.92;21.20;100896.68;1721200;81;21790;-59
2021/05/05 10:29:53;;;;;;;6.70;1.47;;;;;;;21.86;21.17;100892.94;1736475;80;22423;-64
2021/05/05 10:32:31;;;;;;;3.17;1.00;;;;;;;21.79;20.84;100893.86;1728989;80;21327;-68
2021/05/05 10:35:01;;;;;;;3.08;0.93;;;;;;;21.65;20.96;100891.61;1758352;80;21238;-69
2021/05/05 10:37:45;;;;;;;4.03;1.20;;;;;;;21.48;21.09;100888.89;1757027;80;21204;-64
2021/05/05 10:40:22;;;;;;;2.62;1.05;;;;;;;21.24;21.46;100886.11;1760291;80;21838;-67
2021/05/05 10:43:03;;;;;;;4.62;1.07;;;;;;;21.06;21.72;100896.88;1759330;80;21299;-70
2021/05/05 10:45:45;;;;;;;4.53;1.25;;;;;;;20.93;21.96;100903.34;1724931;81;21314;-64
2021/05/05 10:48:20;;;;;;;3.42;1.00;;;;;;;20.83;22.19;100891.66;1739401;81;21220;-67
2021/05/05 10:50:59;;;;;;;2.62;1.02;;;;;;;20.85;22.35;100887.50;1726772;81;21216;-71
2021/05/05 10:53:47;;;;;;;4.72;1.30;;;;;;;20.85;22.57;100882.17;1746297;80;21179;-69
2021/05/05 10:56:29;;;;;;;5.37;1.57;;;;;;;20.76;22.44;100888.09;1719488;82;21691;-63
2021/05/05 10:59:03;;;;;;;5.90;1.67;;;;;;;20.67;22.43;100877.24;1732616;81;21868;-65
2021/05/05 11:01:39;;;;;;;2.50;0.98;;;;;;;20.60;21.91;100884.32;1725494;80;21324;-64
2021/05/05 11:04:16;;;;;;;2.33;0.80;;;;;;;20.51;21.97;100880.95;1725337;81;21257;-66
2021/05/05 11:06:54;;;;;;;3.42;1.10;;;;;;;20.51;22.01;100881.45;1742059;81;21308;-63
2021/05/05 11:09:40;;;;;;;4.03;1.20;;;;;;;20.44;22.25;100876.05;1731237;81;21291;-61
2021/05/05 11:12:39;;;;;;;0.75;0.72;;;;;;;20.43;22.43;100873.55;1727219;81;21700;-65
2021/05/05 11:15:12;;;;;;;1.10;0.90;;;;;;;20.43;22.64;100870.39;1676115;83;21566;-64
2021/05/05 11:17:46;;;;;;;3.40;0.98;;;;;;;20.40;22.39;100864.11;1717359;81;21873;-67
2021/05/05 11:20:39;;;;;;;2.72;1.40;;;;;;;20.35;22.30;100867.02;1745353;80;21796;-66
2021/05/05 11:23:15;;;;;;;5.80;1.20;;;;;;;20.28;22.41;100866.91;1732699;79;21156;-67
2021/05/05 11:25:48;;;;;;;2.60;0.90;;;;;;;20.20;22.47;100865.66;1702984;80;21313;-65
2021/05/05 11:28:24;;;;;;;1.27;0.90;;;;;;;20.18;22.96;100857.85;1720757;80;21361;-69
2021/05/05 11:30:59;;;;;;;1.40;0.80;;;;;;;20.20;22.74;100859.52;1742552;80;21316;-67
2021/05/05 11:33:34;;;;;;;3.98;1.17;;;;;;;20.12;22.88;100855.94;1758504;80;21216;-76
2021/05/05 11:36:17;;;;;;;3.12;0.90;;;;;;;20.01;22.97;100858.23;1717130;80;21217;-71
2021/05/05 11:38:51;;;;;;;3.62;1.10;;;;;;;19.96;23.24;100853.96;1724837;81;21318;-71
2021/05/05 11:41:25;;;;;;;2.07;1.00;;;;;;;19.94;23.26;100854.66;1729332;81;21322;-66
2021/05/05 11:43:58;;;;;;;1.62;0.90;;;;;;;19.87;23.15;100843.10;1725866;81;21267;-63
2021/05/05 11:46:31;;;;;;;2.08;1.05;;;;;;;19.79;23.29;100840.52;1724878;82;21779;-62
2021/05/05 11:49:05;;;;;;;2.83;1.30;;;;;;;19.65;24.01;100834.67;1731751;81;21295;-73
2021/05/05 11:51:39;;;;;;;1.55;0.98;;;;;;;19.57;23.88;100834.74;1740426;81;21323;-68
2021/05/05 11:54:15;;;;;;;7.20;1.30;;;;;;;19.51;24.40;100848.26;1757733;80;21823;-63
2021/05/05 11:56:51;;;;;;;2.05;1.07;;;;;;;19.52;24.66;100848.56;1736346;81;21334;-62
2021/05/05 11:59:26;;;;;;;1.52;0.90;;;;;;;19.58;24.08;100840.39;1717346;81;21161;-66
2021/05/05 12:02:06;;;;;;;1.95;0.80;;;;;;;19.61;24.12;100836.86;1726343;81;21319;-65
2021/05/05 12:04:43;;;;;;;5.65;1.07;;;;;;;19.61;23.81;100834.73;1761105;80;21238;-67
2021/05/05 12:07:21;;;;;;;4.37;0.98;;;;;;;19.61;23.90;100833.40;1724268;81;21239;-68
2021/05/05 12:09:56;;;;;;;2.22;1.02;;;;;;;19.64;24.10;100835.67;1719577;81;21310;-68
2021/05/05 12:12:30;;;;;;;1.57;0.90;;;;;;;19.60;23.73;100837.05;1732806;81;21337;-67
2021/05/05 12:15:09;;;;;;;3.70;1.32;;;;;;;19.52;23.57;100831.80;1737305;81;21240;-72
2021/05/05 12:17:44;;;;;;;1.15;1.02;;;;;;;19.48;23.94;100825.54;1737990;81;21601;-69
2021/05/05 12:20:21;;;;;;;4.22;0.85;;;;;;;19.47;24.07;100821.72;1732750;81;21211;-68
2021/05/05 12:23:00;;;;;;;2.25;0.70;;;;;;;19.46;24.33;100825.39;1740224;81;21212;-70
2021/05/05 12:25:37;;;;;;;3.70;0.70;;;;;;;19.46;24.32;100822.73;1740219;81;21778;-69
2021/05/05 12:28:20;;;;;;;2.65;0.98;;;;;;;19.48;24.43;100823.37;1733685;81;21275;-63
2021/05/05 12:30:57;;;;;;;3.58;0.93;;;;;;;19.51;24.30;100818.21;1737209;81;21308;-73
2021/05/05 12:33:41;;;;;;;2.45;0.98;;;;;;;19.51;24.12;100819.05;1734670;81;21223;-64
2021/05/05 12:36:23;;;;;;;2.53;1.00;;;;;;;19.50;23.81;100809.41;1735531;81;21917;-65
2021/05/05 12:39:00;;;;;;;3.62;1.27;;;;;;;19.39;23.84;100811.19;1732986;81;21322;-70
2021/05/05 12:41:44;;;;;;;3.10;1.65;;;;;;;19.34;23.94;100810.86;1726413;81;21352;-65
2021/05/05 12:44:19;;;;;;;1.65;1.05;;;;;;;19.31;24.06;100815.19;1739657;81;21328;-69
2021/05/05 12:46:58;;;;;;;3.20;2.15;;;;;;;19.30;23.96;100813.03;1741290;81;21433;-67
2021/05/05 12:49:39;;;;;;;1.67;1.17;;;;;;;19.27;23.81;100815.23;1736416;81;21177;-74
2021/05/05 12:52:30;;;;;;;2.35;1.10;;;;;;;19.23;23.86;100816.08;1728750;81;21310;-66
2021/05/05 12:55:26;;;;;;;1.27;0.90;;;;;;;19.21;24.22;100817.27;1728314;81;21350;-69
2021/05/05 12:58:10;;;;;;;2.05;1.12;;;;;;;19.19;24.37;100818.78;1732454;81;21279;-65
2021/05/05 13:00:49;;;;;;;3.85;1.50;;;;;;;19.16;23.68;100811.16;1734517;81;21247;-70
2021/05/05 13:03:24;;;;;;;3.83;1.30;;;;;;;19.13;23.87;100813.36;1734411;81;21299;-70
2021/05/05 13:06:07;;;;;;;2.05;1.00;;;;;;;19.14;24.56;100816.32;1729800;81;21255;-68
2021/05/05 13:11:31;;;;;;;3.87;1.75;;;;;;;19.22;24.61;100809.14;1734852;81;21338;-69
2021/05/05 13:14:10;;;;;;;5.15;2.58;;;;;;;19.26;24.41;100810.42;1733894;81;21324;-69
2021/05/05 13:17:01;;;;;;;3.00;1.57;;;;;;;19.25;24.05;100806.11;1736899;81;21412;-69
2021/05/05 13:19:54;;;;;;;3.67;0.90;;;;;;;19.25;24.38;100807.96;1735836;81;21212;-62
2021/05/05 13:34:15;;;;;;;2.70;1.20;;;;;;;19.24;24.01;100800.48;1738067;81;21374;-65
2021/05/05 13:36:50;;;;;;;3.42;1.12;;;;;;;19.22;24.35;100793.70;1750525;80;21911;-66
2021/05/05 13:39:26;;;;;;;1.77;1.00;;;;;;;19.20;24.26;100791.22;1726073;81;21326;-67
2021/05/05 13:42:10;;;;;;;3.87;1.37;;;;;;;19.18;24.12;100793.23;1733520;81;21203;-61
2021/05/05 13:49:58;;;;;;;1.60;1.17;;;;;;;19.10;24.28;100782.70;1762529;80;21382;-64
2021/05/05 13:52:31;;;;;;;2.37;1.10;;;;;;;19.10;24.19;100789.33;1758267;80;21630;-66
2021/05/05 13:55:07;;;;;;;6.78;1.37;;;;;;;19.10;24.00;100783.19;1766864;80;21235;-70
2021/05/05 13:57:40;;;;;;;3.55;1.40;;;;;;;19.07;24.23;100779.06;1756418;80;21611;-69
2021/05/05 14:00:14;;;;;;;4.87;1.05;;;;;;;19.08;24.37;100771.41;1756386;80;21328;-64
2021/05/05 14:02:47;;;;;;;1.67;1.05;;;;;;;19.06;23.92;100764.12;1751247;80;21266;-71
2021/05/05 14:05:21;;;;;;;1.57;0.80;;;;;;;19.02;23.88;100762.84;1752166;80;21881;-68
2021/05/05 14:07:54;;;;;;;2.45;1.42;;;;;;;19.01;23.90;100762.51;1759818;80;21583;-64
2021/05/05 14:10:27;;;;;;;2.00;1.22;;;;;;;18.99;23.72;100759.21;1755450;80;21382;-69
2021/05/05 14:13:01;;;;;;;2.47;1.17;;;;;;;18.98;23.98;100761.56;1755630;80;21279;-71
2021/05/05 14:15:37;;;;;;;6.28;1.20;;;;;;;18.96;23.66;100752.13;1749269;80;21169;-73
2021/05/05 14:18:11;;;;;;;1.77;1.22;;;;;;;18.92;23.55;100752.97;1728488;80;21291;-72
2021/05/05 14:20:43;;;;;;;;;;;;;;;18.88;23.96;100753.50;1754754;80;21337;-72
2021/05/05 14:23:16;;;;;;;1.40;0.88;;;;;;;18.87;24.16;100757.98;1742158;81;20300;-69
2021/05/05 14:25:49;;;;;;;1.60;1.20;;;;;;;18.84;24.15;100759.16;1759788;80;21249;-71
2021/05/05 14:28:22;;;;;;;4.00;1.13;;;;;;;18.80;24.45;100763.17;1752919;80;21391;-70
2021/05/05 14:30:55;;;;;;;1.52;0.90;;;;;;;18.79;24.61;100760.70;1746804;80;21346;-72
2021/05/05 14:33:28;;;;;;;2.30;1.10;;;;;;;18.76;24.61;100755.25;1755559;80;21307;-67
2021/05/05 14:36:02;;;;;;;3.52;0.82;;;;;;;18.73;24.63;100755.59;1765265;80;21872;-68
2021/05/05 14:38:42;;;;;;;4.83;1.27;;;;;;;18.69;24.89;100754.80;1757469;80;21626;-68
2021/05/05 14:41:20;;;;;;;3.02;1.20;;;;;;;18.66;24.84;100753.33;1769808;80;21323;-67
2021/05/05 14:43:58;;;;;;;3.50;1.22;;;;;;;18.64;24.93;100755.83;1764995;80;21809;-68
2021/05/05 14:48:57;;;;;;;1.40;1.00;;;;;;;18.55;24.87;100751.09;1765910;80;21302;-71
2021/05/05 14:51:30;;;;;;;2.60;1.00;;;;;;;18.53;24.77;100749.61;1776413;80;21322;-69
2021/05/05 14:54:03;;;;;;;2.10;1.30;;;;;;;18.49;25.01;100747.80;1764480;80;21343;-68
2021/05/05 14:56:36;;;;;;;8.07;1.10;;;;;;;18.46;25.31;100744.69;1754508;80;21196;-72
2021/05/05 14:59:13;;;;;;;2.45;1.17;;;;;;;18.44;25.71;100743.98;1770917;80;21267;-70
2021/05/05 15:01:43;;;;;;;4.35;1.10;;;;;;;18.43;25.47;100742.34;1768207;80;21309;-70
2021/05/05 15:04:16;;;;;;;3.22;1.15;;;;;;;18.38;25.36;100737.57;1774085;80;21310;-69
2021/05/05 15:06:52;;;;;;;3.67;1.50;;;;;;;18.36;25.44;100746.69;1783304;80;21888;-70
2021/05/05 15:12:26;;;;;;;4.12;1.15;;;;;;;18.27;25.54;100740.59;1720197;83;21322;-69
2021/05/05 15:15:02;;;;;;;2.62;1.15;;;;;;;18.22;25.82;100745.62;1745533;80;21887;-69
2021/05/05 15:34:15;;;;;;;3.95;1.20;;;;;;;17.88;25.91;100755.20;1719889;82;21243;-71
2021/05/05 15:36:43;;;;;;;2.30;1.02;;;;;;;17.83;25.99;100756.20;1722759;81;21322;-71
2021/05/05 15:39:36;;;;;;;4.15;1.22;;;;;;;17.77;26.22;100754.73;1732829;81;21192;-70
2021/05/05 15:42:02;;;;;;;5.47;1.27;;;;;;;17.72;26.28;100762.36;1752723;81;21259;-70
2021/05/05 15:44:55;;;;;;;2.45;1.25;;;;;;;17.66;26.26;100757.23;1762825;80;21212;-70
2021/05/05 15:47:28;;;;;;;1.77;1.07;;;;;;;17.61;26.43;100770.16;1732361;80;21235;-71
2021/05/05 15:50:09;;;;;;;3.30;1.15;;;;;;;17.53;26.32;100767.52;1761993;80;21295;-73
2021/05/05 15:52:47;;;;;;;4.83;1.30;;;;;;;17.46;26.52;100772.63;1737172;81;21223;-70
2021/05/05 15:55:19;;;;;;;2.55;1.35;;;;;;;17.40;26.61;100767.19;1726473;81;21324;-69
2021/05/05 15:57:57;;;;;;;6.75;1.25;;;;;;;17.35;26.62;100772.15;1743727;81;21768;-71
2021/05/05 16:00:37;;;;;;;3.25;1.00;;;;;;;17.29;26.81;100772.83;1687472;83;21268;-71
2021/05/05 16:16:40;;;;;;;4.40;2.35;;;;;;;16.79;27.93;100772.95;1742788;80;21317;-68
2021/05/05 16:19:13;;;;;;;6.07;1.40;;;;;;;16.70;28.07;100770.80;1741665;81;21339;-68
2021/05/05 16:22:02;;;;;;;5.22;1.27;;;;;;;16.63;28.30;100771.12;1784962;80;21266;-68
2021/05/05 16:44:57;;;;;;;7.05;2.15;;;;;;;15.85;30.03;100774.95;1772309;80;21231;-69
2021/05/05 16:53:16;;;;;;;4.83;2.12;;;;;;;15.49;30.75;100772.92;1780822;80;21696;-68
2021/05/05 16:54:58;;;;;;;13.70;3.00;;;;;;;15.38;30.99;100777.09;1766336;80;21160;-68
2021/05/05 17:00:32;;;;;;;12.43;3.40;;;;;;;15.17;32.14;100783.20;1785244;80;21279;-68
2021/05/05 17:08:43;;;;;;;7.20;3.10;;;;;;;14.82;32.77;100786.69;1783760;80;21806;-69
2021/05/05 17:11:05;;;;;;;9.40;3.10;;;;;;;14.73;33.15;100786.28;1778370;80;21157;-70
2021/05/05 17:13:38;;;;;;;7.93;3.30;;;;;;;14.64;33.30;100792.94;1770369;80;21326;-69
2021/05/05 17:16:11;;;;;;;11.53;3.95;;;;;;;14.55;34.31;100794.64;1721682;81;21187;-69
2021/05/05 17:21:29;;;;;;;;;;;;;;;14.36;35.86;100796.55;1732084;82;20155;-69
2021/05/05 17:24:03;;;;;;;;;;;;;;;14.22;36.02;100792.58;1736686;81;20234;-69
2021/05/05 17:26:37;;;;;;;;;;;;;;;14.11;36.83;100797.53;1737366;81;20158;-69
2021/05/05 17:29:15;;;;;;;;;;;;;;;14.00;37.25;100799.05;1744980;81;20305;-69
2021/05/05 17:43:11;;;;;;;;;;;;;;;13.40;39.15;100812.16;1729305;83;20237;-69
2021/05/05 17:51:25;;;;;;;;;;;;;;;13.04;39.20;100812.02;1736462;81;20228;-67
2021/05/05 18:10:31;;;;;;;;;;;;;;;12.54;42.53;100817.81;1721906;81;20269;-68
2021/05/05 18:18:29;;;;;;;;;;;;;;;12.33;44.77;100827.09;1716742;83;20835;-68
2021/05/05 18:20:57;;;;;;;;;;;;;;;12.24;45.98;100829.21;1722768;82;20603;-68
2021/05/05 18:23:43;;;;;;;;;;;;;;;12.14;46.49;100827.86;1716309;82;20232;-68
2021/05/05 18:26:23;;;;;;;;;;;;;;;12.07;46.89;100826.73;1709553;82;20201;-67
2021/05/05 18:29:07;;;;;;;;;;;;;;;11.98;47.32;100825.38;1737436;82;20193;-67
2021/05/05 18:31:32;;;;;;;;;;;;;;;11.89;48.09;100827.48;1721360;82;20323;-67
2021/05/05 18:34:04;;;;;;;;;;;;;;;11.80;48.66;100831.70;1726434;81;20234;-68
2021/05/05 18:36:36;;;;;;;;;;;;;;;11.73;49.13;100832.34;1720496;81;20252;-67
2021/05/05 18:39:12;;;;;;;;;;;;;;;11.63;49.58;100824.38;1710265;82;20240;-68
2021/05/05 18:42:07;;;;;;;;;;;;;;;11.56;49.96;100832.91;1724008;82;20250;-67
2021/05/05 19:07:15;;;;;;;;;;;;;;;10.87;51.28;100829.87;1725575;82;20254;-67
2021/05/05 19:10:52;;;;;;;;;;;;;;;10.77;51.06;100829.77;1721093;81;20200;-67
2021/05/05 19:27:01;;;;;;;;;;;;;;;10.40;49.27;100834.98;1762039;80;20667;-67
2021/05/05 19:47:08;;;;;;;;;;;;;;;10.14;48.83;100822.64;1747922;82;20279;-68
2021/05/05 20:38:56;;;;;;;;;;;;;;;9.56;51.05;100829.31;1738537;82;20174;-66
2021/05/05 20:42:43;;;;;;;;;;;;;;;9.53;51.22;100828.72;1722638;82;20257;-67
2021/05/05 21:11:35;;;;;;;;;;;;;;;9.12;51.57;100807.79;1745565;81;20225;-65
2021/05/05 21:36:27;;;;;;;;;;;;;;;8.99;51.45;100810.13;1731484;82;20270;-67
2021/05/05 21:37:09;;;;;;;;;;;;;;;8.96;51.58;100816.87;1711166;83;20179;-67
2021/05/05 22:30:07;;;;;;;;;;;;;;;7.53;57.88;100836.98;1720939;81;20260;-67
2021/05/05 23:11:18;;;;;;;;;;;;;;;7.09;60.70;100830.36;1714882;82;20239;-66
2021/05/05 23:22:33;;;;;;;;;;;;;;;7.04;61.34;100838.09;1727310;82;20632;-68
2021/05/05 23:27:30;;;;;;;;;;;;;;;6.97;61.75;100832.46;1720328;82;20207;-66
2021/05/05 23:33:20;;;;;;;;;;;;;;;6.94;62.25;100838.31;1716370;83;20266;-67
